Time;durP1;ratioP1;P1;durP2;ratioP2;P2;SDS_P1;SDS_P2;PMS_P1;PMS_P2;Temp;Humidity;BMP_temperature;BMP_pressure;BME280_temperature;BME280_humidity;BME280_pressure;Samples;Min_cycle;Max_cycle;Signal;HPM_P1;HPM_P2
2022/06/25 00:01:30;;;;;;;9.43;3.37;;;;;;;17.27;55.52;98790.30;1736539;82;21046;-81
2022/06/25 00:03:57;;;;;;;9.43;3.30;;;;;;;17.21;59.23;98796.34;1730731;82;20951;-81
2022/06/25 00:06:25;;;;;;;5.80;3.40;;;;;;;17.17;58.14;98797.45;1737264;82;21011;-81
2022/06/25 00:08:51;;;;;;;6.75;3.40;;;;;;;17.14;59.03;98789.77;1738750;81;21424;-80
2022/06/25 00:14:09;;;;;;;5.42;2.70;;;;;;;17.12;58.48;98787.70;1725666;81;20972;-81
2022/06/25 00:16:37;;;;;;;9.83;3.47;;;;;;;17.06;58.83;98786.27;1730005;82;21561;-80
2022/06/25 00:19:04;;;;;;;7.37;3.25;;;;;;;17.01;59.03;98789.16;1730117;81;21030;-81
2022/06/25 00:21:31;;;;;;;10.48;3.17;;;;;;;16.99;58.13;98782.28;1730913;82;21447;-81
2022/06/25 00:23:58;;;;;;;6.75;3.55;;;;;;;16.91;57.91;98786.67;1733254;81;21003;-81
2022/06/25 00:26:25;;;;;;;5.85;2.62;;;;;;;16.83;55.69;98786.23;1737540;82;21453;-80
2022/06/25 00:28:52;;;;;;;7.78;2.92;;;;;;;16.73;56.78;98791.58;1725968;81;21584;-80
2022/06/25 00:31:18;;;;;;;5.80;3.15;;;;;;;16.65;56.47;98791.55;1705184;82;20973;-81
2022/06/25 00:33:45;;;;;;;8.28;3.05;;;;;;;16.57;57.01;98785.84;1735390;81;20991;-81
2022/06/25 00:36:12;;;;;;;8.58;3.47;;;;;;;16.51;57.87;98790.13;1728718;82;20975;-80
2022/06/25 00:38:39;;;;;;;10.53;3.40;;;;;;;16.49;58.98;98786.30;1733059;81;21055;-81
2022/06/25 00:41:05;;;;;;;7.97;3.27;;;;;;;16.45;57.73;98790.45;1715745;82;21515;-80
2022/06/25 00:43:36;;;;;;;8.60;3.20;;;;;;;16.37;59.40;98792.65;1727545;83;21023;-81
2022/06/25 00:46:02;;;;;;;11.22;3.47;;;;;;;16.33;59.27;98795.89;1724602;83;20979;-80
2022/06/25 00:48:29;;;;;;;8.33;3.55;;;;;;;16.29;57.10;98800.48;1725488;83;20987;-81
2022/06/25 00:51:00;;;;;;;7.22;3.45;;;;;;;16.24;58.97;98794.63;1690904;84;21451;-81
2022/06/25 00:53:31;;;;;;;8.23;3.50;;;;;;;16.22;58.13;98792.55;1728332;83;20960;-81
2022/06/25 00:55:59;;;;;;;5.70;3.17;;;;;;;16.16;59.51;98793.34;1724161;83;20972;-81
2022/06/25 00:58:32;;;;;;;13.00;3.42;;;;;;;16.14;59.77;98791.27;1729124;83;20962;-81
2022/06/25 01:01:00;;;;;;;7.05;3.35;;;;;;;16.14;60.06;98796.52;1697487;83;21042;-80
2022/06/25 01:03:28;;;;;;;7.58;3.02;;;;;;;16.15;59.87;98788.54;1729182;83;20984;-81
2022/06/25 01:05:55;;;;;;;8.18;3.42;;;;;;;16.19;60.00;98793.16;1714939;82;21090;-81
2022/06/25 01:08:23;;;;;;;10.55;3.33;;;;;;;16.22;59.85;98789.92;1726913;83;21023;-81
2022/06/25 01:10:49;;;;;;;7.60;3.50;;;;;;;16.26;60.88;98795.86;1726630;82;21007;-81
2022/06/25 01:13:21;;;;;;;11.55;3.27;;;;;;;16.30;61.64;98790.36;1724768;83;21015;-81
2022/06/25 01:15:46;;;;;;;6.92;3.55;;;;;;;16.33;61.08;98786.72;1723849;83;21004;-81
2022/06/25 01:18:13;;;;;;;12.10;3.55;;;;;;;16.37;60.61;98794.80;1701043;83;21058;-81
2022/06/25 01:20:42;;;;;;;13.28;3.80;;;;;;;16.37;60.47;98797.42;1728087;83;21878;-81
2022/06/25 01:23:12;;;;;;;7.42;3.35;;;;;;;16.33;59.71;98801.14;1725626;83;21474;-81
2022/06/25 01:25:40;;;;;;;14.20;3.80;;;;;;;16.30;60.41;98811.34;1726533;83;21519;-80
2022/06/25 01:28:08;;;;;;;13.40;3.37;;;;;;;16.30;60.79;98810.50;1711280;83;21083;-80
2022/06/25 01:30:36;;;;;;;6.05;2.70;;;;;;;16.31;60.96;98816.12;1693065;85;20988;-80
2022/06/25 01:33:09;;;;;;;10.00;3.10;;;;;;;16.28;60.43;98815.83;1718350;83;20979;-80
2022/06/25 01:35:36;;;;;;;5.17;2.58;;;;;;;16.25;59.71;98828.25;1727239;83;20976;-81
2022/06/25 01:38:03;;;;;;;7.53;2.70;;;;;;;16.19;61.42;98827.26;1722290;83;21070;-81
2022/06/25 01:40:33;;;;;;;7.53;2.83;;;;;;;16.13;59.75;98821.86;1726104;82;20996;-80
2022/06/25 01:43:01;;;;;;;6.15;2.75;;;;;;;16.03;61.35;98824.11;1731946;81;21002;-80
2022/06/25 01:45:35;;;;;;;5.55;3.15;;;;;;;15.98;60.20;98830.55;1733421;82;20945;-80
2022/06/25 01:48:06;;;;;;;11.08;3.22;;;;;;;15.91;63.59;98830.00;1736456;81;20999;-79
2022/06/25 01:50:34;;;;;;;7.12;2.95;;;;;;;15.84;64.35;98830.78;1725949;82;20965;-81
2022/06/25 01:53:03;;;;;;;5.25;2.83;;;;;;;15.81;62.17;98840.56;1707481;82;21077;-81
2022/06/25 01:55:30;;;;;;;8.25;2.70;;;;;;;15.77;62.20;98845.58;1724380;82;21043;-81
2022/06/25 01:57:58;;;;;;;5.08;2.58;;;;;;;15.74;63.30;98849.66;1729757;81;21066;-80
2022/06/25 02:00:29;;;;;;;6.75;2.77;;;;;;;15.74;63.06;98852.27;1738715;82;20991;-80
2022/06/25 02:03:00;;;;;;;6.28;2.80;;;;;;;15.75;63.45;98855.30;1735335;81;21042;-81
2022/06/25 02:08:17;;;;;;;8.48;2.83;;;;;;;15.77;63.15;98855.59;1739315;81;21022;-79
2022/06/25 02:10:47;;;;;;;7.50;3.37;;;;;;;15.75;64.67;98855.30;1733697;82;21003;-81
2022/06/25 02:13:15;;;;;;;5.72;3.20;;;;;;;15.75;62.61;98861.84;1737131;81;20951;-81
2022/06/25 02:15:42;;;;;;;5.95;2.67;;;;;;;15.71;63.41;98865.89;1738200;82;20987;-81
2022/06/25 02:18:10;;;;;;;10.30;3.12;;;;;;;15.69;63.30;98857.72;1740153;82;21034;-82
2022/06/25 02:20:40;;;;;;;4.92;2.85;;;;;;;15.69;63.90;98863.80;1724999;82;20987;-82
2022/06/25 02:23:08;;;;;;;4.95;2.65;;;;;;;15.68;64.99;98866.53;1740745;82;21042;-81
2022/06/25 02:25:35;;;;;;;8.78;2.75;;;;;;;15.68;63.87;98874.39;1727267;81;22039;-81
2022/06/25 02:28:03;;;;;;;4.50;2.50;;;;;;;15.67;64.83;98870.89;1723145;82;21042;-81
2022/06/25 02:30:30;;;;;;;5.25;2.67;;;;;;;15.65;63.89;98871.44;1732194;82;21001;-81
2022/06/25 02:32:57;;;;;;;6.97;2.60;;;;;;;15.64;64.32;98871.53;1740697;82;21524;-81
2022/06/25 02:35:24;;;;;;;7.20;2.67;;;;;;;15.66;64.84;98870.99;1730060;81;20995;-81
2022/06/25 02:37:52;;;;;;;7.62;2.60;;;;;;;15.67;64.81;98866.96;1739598;82;21038;-81
2022/06/25 02:40:21;;;;;;;4.62;2.58;;;;;;;15.66;64.87;98861.82;1737091;81;20966;-81
2022/06/25 02:42:48;;;;;;;5.90;3.08;;;;;;;15.64;64.10;98867.60;1732625;81;21068;-80
2022/06/25 02:45:16;;;;;;;13.83;3.20;;;;;;;15.48;63.99;98868.34;1706384;83;21045;-81
2022/06/25 02:47:45;;;;;;;3.30;2.50;;;;;;;15.35;65.07;98867.23;1705180;82;21014;-80
2022/06/25 02:50:12;;;;;;;7.35;3.05;;;;;;;15.27;65.08;98862.83;1708852;83;21007;-80
2022/06/25 02:52:39;;;;;;;4.83;2.87;;;;;;;15.20;64.29;98866.66;1706764;82;21515;-81
2022/06/25 02:55:08;;;;;;;9.15;3.65;;;;;;;15.15;66.18;98862.95;1706566;82;20984;-80
2022/06/25 03:00:22;;;;;;;8.93;3.17;;;;;;;15.16;65.35;98859.43;1689222;84;21782;-81
2022/06/25 03:02:49;;;;;;;5.45;2.47;;;;;;;15.16;64.89;98871.65;1633364;85;21061;-80
2022/06/25 03:05:16;;;;;;;4.92;2.70;;;;;;;15.18;65.39;98865.87;1709415;82;21516;-80
2022/06/25 03:07:42;;;;;;;9.03;3.33;;;;;;;15.23;66.57;98870.45;1705434;83;20987;-80
2022/06/25 03:10:09;;;;;;;9.93;3.25;;;;;;;15.22;64.81;98872.23;1649794;87;21012;-80
2022/06/25 03:12:36;;;;;;;8.98;2.77;;;;;;;15.23;65.60;98869.98;1674854;84;20997;-79
2022/06/25 03:15:06;;;;;;;7.30;3.25;;;;;;;15.21;64.30;98868.37;1707637;82;21015;-80
2022/06/25 03:17:33;;;;;;;4.55;2.47;;;;;;;15.21;64.33;98872.30;1676286;84;21025;-81
2022/06/25 03:20:05;;;;;;;5.33;2.37;;;;;;;15.19;63.93;98879.38;1674928;84;21089;-80
2022/06/25 03:22:33;;;;;;;6.00;2.50;;;;;;;15.12;64.29;98870.97;1671341;84;21593;-80
2022/06/25 03:25:00;;;;;;;4.70;2.45;;;;;;;15.12;62.66;98870.97;1665301;84;20990;-81
2022/06/25 03:27:27;;;;;;;5.72;3.17;;;;;;;15.10;63.00;98872.81;1675912;84;21559;-81
2022/06/25 03:29:56;;;;;;;8.63;3.08;;;;;;;15.11;64.67;98878.42;1678351;84;21053;-79
2022/06/25 03:32:23;;;;;;;9.88;3.62;;;;;;;15.09;63.49;98876.34;1692685;84;20993;-79
2022/06/25 03:35:08;;;;;;;7.85;3.20;;;;;;;15.09;63.82;98886.34;1635365;85;21525;-80
2022/06/25 03:37:37;;;;;;;6.53;3.47;;;;;;;15.12;65.13;98884.06;1703652;83;21445;-81
2022/06/25 03:40:04;;;;;;;5.53;3.25;;;;;;;15.19;64.52;98880.69;1694741;84;21079;-80
2022/06/25 03:42:33;;;;;;;5.58;3.05;;;;;;;15.25;64.78;98874.69;1658126;84;21009;-81
2022/06/25 03:45:02;;;;;;;10.95;3.77;;;;;;;15.33;65.12;98871.70;1679884;84;20978;-80
2022/06/25 03:47:30;;;;;;;6.25;3.30;;;;;;;15.36;64.05;98877.24;1690739;85;20968;-81
2022/06/25 03:49:58;;;;;;;8.93;3.30;;;;;;;15.41;64.96;98883.13;1658406;85;21580;-79
2022/06/25 03:52:26;;;;;;;5.45;2.95;;;;;;;15.43;65.62;98882.12;1678895;85;20968;-80
2022/06/25 03:54:53;;;;;;;10.25;3.58;;;;;;;15.47;63.63;98883.66;1685093;84;21012;-79
2022/06/25 03:57:20;;;;;;;9.38;3.27;;;;;;;15.56;64.83;98883.70;1689935;85;21005;-81
2022/06/25 04:00:07;;;;;;;6.60;3.40;;;;;;;15.67;64.54;98884.47;1686023;84;21004;-81
2022/06/25 04:02:41;;;;;;;11.30;3.30;;;;;;;15.80;63.60;98888.69;1683585;85;21044;-81
2022/06/25 04:05:25;;;;;;;10.32;4.62;;;;;;;15.92;64.13;98889.38;1679069;84;21036;-81
2022/06/25 04:07:52;;;;;;;13.20;4.17;;;;;;;16.04;64.70;98891.38;1685379;85;21044;-81
2022/06/25 04:10:19;;;;;;;9.65;3.83;;;;;;;16.14;64.56;98897.00;1684937;85;20989;-82
2022/06/25 04:12:46;;;;;;;6.83;3.72;;;;;;;16.25;64.80;98896.45;1662940;85;20981;-81
2022/06/25 04:15:13;;;;;;;10.60;3.90;;;;;;;16.37;64.57;98892.34;1689185;84;20988;-81
2022/06/25 04:17:40;;;;;;;14.53;3.80;;;;;;;16.46;64.32;98891.40;1691895;85;21047;-81
2022/06/25 04:20:08;;;;;;;9.33;3.65;;;;;;;16.56;64.34;98896.17;1688610;84;20992;-82
2022/06/25 04:22:34;;;;;;;12.28;3.92;;;;;;;16.63;63.93;98896.22;1690973;85;21016;-81
2022/06/25 04:25:04;;;;;;;8.08;3.20;;;;;;;16.69;63.95;98894.13;1662592;84;20986;-81
2022/06/25 04:30:16;;;;;;;5.45;3.22;;;;;;;16.81;63.96;98897.01;1687498;84;20988;-82
2022/06/25 04:32:44;;;;;;;7.08;3.40;;;;;;;16.81;62.70;98896.59;1701763;83;20972;-80
2022/06/25 04:35:13;;;;;;;11.22;3.40;;;;;;;16.80;63.28;98892.23;1704268;84;20987;-81
2022/06/25 04:37:40;;;;;;;7.60;3.67;;;;;;;16.84;63.50;98895.10;1707358;82;20990;-81
2022/06/25 04:40:08;;;;;;;6.15;3.22;;;;;;;16.86;64.15;98893.24;1737093;82;20966;-81
2022/06/25 04:42:36;;;;;;;10.18;3.42;;;;;;;16.91;62.87;98893.02;1737184;81;21007;-81
2022/06/25 04:45:03;;;;;;;7.90;3.47;;;;;;;16.92;62.78;98887.29;1736226;83;21027;-81
2022/06/25 04:47:32;;;;;;;5.62;3.40;;;;;;;16.98;62.15;98890.89;1717929;81;21487;-80
2022/06/25 04:50:01;;;;;;;9.43;3.37;;;;;;;16.98;62.37;98883.02;1735165;82;21513;-80
2022/06/25 04:52:28;;;;;;;7.25;3.50;;;;;;;16.99;61.56;98882.06;1724013;82;20987;-81
2022/06/25 04:54:55;;;;;;;8.08;3.15;;;;;;;17.04;61.34;98883.52;1730084;82;21533;-81
2022/06/25 04:57:23;;;;;;;8.25;3.67;;;;;;;17.06;61.60;98892.16;1733431;82;20990;-81
2022/06/25 05:00:11;;;;;;;7.17;3.37;;;;;;;17.10;61.73;98888.42;1737297;82;21023;-81
2022/06/25 05:02:40;;;;;;;7.53;3.33;;;;;;;17.20;61.46;98887.92;1730350;81;21011;-81
2022/06/25 05:05:09;;;;;;;8.83;3.00;;;;;;;17.31;60.91;98884.25;1734968;82;21296;-81
2022/06/25 05:07:36;;;;;;;7.17;3.17;;;;;;;17.35;61.27;98879.64;1733248;81;21003;-82
2022/06/25 05:10:03;;;;;;;7.35;3.27;;;;;;;17.44;61.36;98887.86;1739245;82;20976;-81
2022/06/25 05:15:16;;;;;;;9.25;3.00;;;;;;;17.62;60.54;98879.39;1745298;82;20967;-81
2022/06/25 05:17:42;;;;;;;5.20;2.92;;;;;;;17.74;59.40;98877.00;1734391;81;20928;-81
2022/06/25 05:20:11;;;;;;;8.48;2.92;;;;;;;17.73;59.39;98880.58;1720616;82;21131;-82
2022/06/25 05:22:38;;;;;;;6.50;3.35;;;;;;;17.80;59.34;98882.73;1736824;82;20988;-82
2022/06/25 05:25:07;;;;;;;5.90;3.15;;;;;;;17.92;59.09;98883.00;1729093;81;21467;-82
2022/06/25 05:27:33;;;;;;;7.10;3.08;;;;;;;17.99;58.73;98870.72;1736742;82;21582;-80
2022/06/25 05:30:00;;;;;;;6.95;2.95;;;;;;;18.06;58.73;98872.06;1728933;81;21018;-81
2022/06/25 05:32:27;;;;;;;8.23;3.60;;;;;;;18.14;58.66;98869.42;1731137;82;20975;-81
2022/06/25 05:34:56;;;;;;;9.65;3.60;;;;;;;18.24;58.56;98867.92;1730486;82;21413;-80
2022/06/25 05:37:23;;;;;;;10.25;4.42;;;;;;;18.34;58.49;98873.00;1737783;82;21492;-79
2022/06/25 05:39:50;;;;;;;6.33;3.40;;;;;;;18.43;58.07;98873.77;1729137;81;20978;-80
2022/06/25 05:42:16;;;;;;;6.62;3.15;;;;;;;18.52;57.95;98869.72;1726359;81;21054;-79
2022/06/25 05:44:43;;;;;;;7.53;2.98;;;;;;;18.61;57.95;98868.33;1731453;81;21039;-80
2022/06/25 05:47:10;;;;;;;6.47;3.00;;;;;;;18.72;57.85;98872.47;1732390;82;21460;-80
2022/06/25 05:49:37;;;;;;;10.48;3.33;;;;;;;18.76;57.35;98875.29;1747237;81;21055;-80
2022/06/25 05:52:05;;;;;;;7.47;2.85;;;;;;;18.79;57.35;98868.97;1716187;82;20955;-80
2022/06/25 05:54:32;;;;;;;8.68;3.62;;;;;;;18.87;57.11;98876.79;1728891;81;20995;-81
2022/06/25 05:56:58;;;;;;;5.70;3.40;;;;;;;18.94;57.12;98879.03;1719759;82;20974;-81
2022/06/25 05:59:25;;;;;;;6.42;3.10;;;;;;;19.05;57.03;98884.48;1728469;82;21062;-80
2022/06/25 06:01:52;;;;;;;5.97;2.55;;;;;;;19.18;56.85;98883.22;1688691;83;21040;-80
2022/06/25 06:04:18;;;;;;;6.00;2.95;;;;;;;19.32;56.44;98888.92;1739318;82;20974;-81
2022/06/25 06:06:45;;;;;;;5.20;2.60;;;;;;;19.39;56.31;98887.59;1726744;82;21495;-80
2022/06/25 06:09:12;;;;;;;13.00;3.02;;;;;;;19.50;56.23;98886.44;1724736;82;20971;-82
2022/06/25 06:11:39;;;;;;;10.32;3.20;;;;;;;19.63;55.97;98891.26;1740619;82;21541;-81
2022/06/25 06:14:05;;;;;;;8.13;3.15;;;;;;;19.73;55.45;98891.53;1739829;82;20999;-81
2022/06/25 06:16:33;;;;;;;8.15;3.22;;;;;;;19.81;55.26;98897.14;1738726;80;21005;-82
2022/06/25 06:18:59;;;;;;;7.22;2.90;;;;;;;19.93;55.17;98896.80;1743663;80;20962;-82
2022/06/25 06:21:26;;;;;;;6.03;2.90;;;;;;;20.06;54.85;98888.92;1736110;80;20955;-82
2022/06/25 06:23:53;;;;;;;12.35;2.90;;;;;;;20.14;54.26;98889.73;1733772;80;21033;-82
2022/06/25 06:26:20;;;;;;;8.30;3.20;;;;;;;20.22;53.55;98892.20;1738946;81;21483;-82
2022/06/25 06:28:46;;;;;;;8.20;2.83;;;;;;;20.30;52.68;98888.22;1737554;82;20994;-82
2022/06/25 06:31:13;;;;;;;4.97;2.75;;;;;;;20.34;52.41;98890.53;1743523;81;20955;-83
2022/06/25 06:33:40;;;;;;;5.83;3.10;;;;;;;20.42;52.43;98880.28;1734102;82;21503;-82
2022/06/25 06:36:06;;;;;;;7.62;3.05;;;;;;;20.54;52.57;98877.75;1739365;82;20967;-81
2022/06/25 06:38:33;;;;;;;6.87;2.87;;;;;;;20.65;51.97;98877.86;1734815;81;21086;-82
2022/06/25 06:41:00;;;;;;;6.60;2.80;;;;;;;20.76;51.71;98879.77;1751465;82;21488;-81
2022/06/25 06:43:27;;;;;;;8.73;2.92;;;;;;;20.87;50.97;98881.18;1724489;81;20989;-82
2022/06/25 06:45:53;;;;;;;10.25;2.62;;;;;;;20.96;51.02;98877.02;1736283;82;20980;-84
2022/06/25 06:48:20;;;;;;;6.20;2.60;;;;;;;21.09;50.81;98873.87;1736777;82;21795;-82
2022/06/25 06:50:47;;;;;;;4.53;2.30;;;;;;;21.17;49.89;98876.81;1737064;82;20991;-83
2022/06/25 06:53:14;;;;;;;10.03;2.50;;;;;;;21.26;50.14;98881.41;1737531;81;21022;-83
2022/06/25 06:55:41;;;;;;;8.43;3.10;;;;;;;21.38;50.45;98882.80;1740221;82;21051;-83
2022/06/25 06:58:08;;;;;;;6.37;2.35;;;;;;;21.49;49.77;98882.91;1737957;82;20958;-83
2022/06/25 07:00:34;;;;;;;5.20;2.20;;;;;;;21.59;49.35;98873.33;1727653;82;21002;-83
2022/06/25 07:03:01;;;;;;;4.40;2.62;;;;;;;21.72;49.12;98875.06;1735764;81;21501;-83
2022/06/25 07:05:28;;;;;;;4.30;2.30;;;;;;;21.81;48.94;98869.92;1725055;82;20991;-82
2022/06/25 07:07:55;;;;;;;5.03;2.52;;;;;;;21.91;48.79;98868.76;1739766;82;20979;-83
2022/06/25 07:10:22;;;;;;;4.97;2.58;;;;;;;21.98;48.47;98878.39;1732094;81;20995;-82
2022/06/25 07:12:49;;;;;;;8.35;2.80;;;;;;;22.06;48.04;98874.67;1741305;82;20985;-84
2022/06/25 07:15:16;;;;;;;4.30;2.58;;;;;;;22.14;48.00;98877.58;1737797;81;21025;-83
2022/06/25 07:17:42;;;;;;;6.87;2.55;;;;;;;22.23;47.26;98875.56;1740653;82;20971;-83
2022/06/25 07:20:10;;;;;;;4.75;2.77;;;;;;;22.31;47.60;98867.06;1740036;82;20999;-82
2022/06/25 07:22:36;;;;;;;6.03;2.90;;;;;;;22.40;47.65;98867.69;1695084;83;20965;-83
2022/06/25 07:25:04;;;;;;;6.72;2.67;;;;;;;22.49;47.36;98867.93;1664692;84;21007;-83
2022/06/25 07:27:32;;;;;;;6.28;2.85;;;;;;;22.55;47.03;98865.63;1704261;83;21012;-79
2022/06/25 07:29:58;;;;;;;6.25;2.72;;;;;;;22.65;46.98;98863.11;1698653;83;20963;-81
2022/06/25 07:32:25;;;;;;;7.47;2.35;;;;;;;22.75;47.36;98858.77;1703445;83;20981;-80
2022/06/25 07:34:52;;;;;;;5.00;2.80;;;;;;;22.89;46.71;98868.77;1677738;84;21486;-81
2022/06/25 07:37:19;;;;;;;5.22;2.83;;;;;;;22.97;46.38;98863.19;1670728;85;21048;-80
2022/06/25 07:39:45;;;;;;;5.10;2.40;;;;;;;23.01;46.16;98861.14;1710524;83;20994;-81
2022/06/25 07:42:12;;;;;;;6.83;2.98;;;;;;;23.10;46.06;98863.56;1669952;85;21531;-79
2022/06/25 07:44:39;;;;;;;4.45;2.60;;;;;;;23.21;45.59;98867.52;1704283;83;21020;-79
2022/06/25 07:47:06;;;;;;;7.08;2.67;;;;;;;23.29;44.53;98861.11;1701399;83;20979;-80
2022/06/25 07:51:56;;;;;;;5.62;2.50;;;;;;;23.36;44.41;98865.45;1704056;83;20984;-81
2022/06/25 07:52:04;;;;;;;7.28;2.10;;;;;;;23.46;44.16;98858.42;1685524;83;21015;-80
2022/06/25 07:54:34;;;;;;;6.33;2.55;;;;;;;23.57;44.07;98859.68;1696965;83;21008;-81
2022/06/25 07:57:01;;;;;;;4.58;2.22;;;;;;;23.65;43.97;98857.72;1700768;83;20940;-80
2022/06/25 07:59:28;;;;;;;4.17;2.27;;;;;;;23.73;43.21;98851.78;1705453;84;20977;-80
2022/06/25 08:01:54;;;;;;;4.08;2.45;;;;;;;23.85;43.90;98843.31;1698579;84;21021;-80
2022/06/25 08:04:21;;;;;;;4.30;2.22;;;;;;;23.96;44.02;98843.26;1708882;84;21023;-79
2022/06/25 08:06:48;;;;;;;4.45;2.27;;;;;;;24.10;41.88;98847.40;1733450;81;21416;-81
2022/06/25 08:09:15;;;;;;;5.15;2.17;;;;;;;24.17;41.42;98847.21;1740590;82;21058;-80
2022/06/25 08:11:41;;;;;;;6.25;2.08;;;;;;;24.24;41.96;98839.58;1742039;81;21017;-81
2022/06/25 08:14:08;;;;;;;4.83;2.40;;;;;;;24.33;42.44;98848.94;1734078;82;20990;-81
2022/06/25 08:16:35;;;;;;;6.67;2.60;;;;;;;24.44;41.50;98847.16;1739453;82;20983;-80
2022/06/25 08:19:02;;;;;;;5.62;2.40;;;;;;;24.50;42.01;98843.97;1720948;82;21014;-80
2022/06/25 08:21:29;;;;;;;5.90;2.22;;;;;;;24.62;42.14;98841.59;1740702;82;21004;-80
2022/06/25 08:23:56;;;;;;;3.55;2.40;;;;;;;24.78;41.71;98843.26;1739432;82;21038;-81
2022/06/25 08:26:23;;;;;;;8.30;2.72;;;;;;;24.93;41.96;98834.89;1740207;82;21447;-81
2022/06/25 08:28:50;;;;;;;7.33;2.40;;;;;;;25.05;41.73;98834.30;1732791;81;21849;-80
2022/06/25 08:31:17;;;;;;;3.15;2.20;;;;;;;25.20;41.50;98840.41;1738510;82;21026;-81
2022/06/25 08:33:44;;;;;;;4.58;2.45;;;;;;;25.34;41.52;98843.19;1731999;81;20990;-80
2022/06/25 08:36:11;;;;;;;5.35;2.35;;;;;;;25.46;41.12;98839.91;1739759;82;20982;-81
2022/06/25 08:38:38;;;;;;;4.78;2.50;;;;;;;25.55;40.89;98839.08;1735215;81;21042;-80
2022/06/25 08:41:05;;;;;;;5.30;2.22;;;;;;;25.67;41.00;98837.62;1734358;82;21546;-81
2022/06/25 08:43:32;;;;;;;4.70;2.45;;;;;;;25.78;40.73;98836.12;1731177;81;20984;-81
2022/06/25 08:45:59;;;;;;;5.87;2.30;;;;;;;25.88;40.56;98834.77;1714116;83;21011;-81
2022/06/25 08:48:32;;;;;;;8.95;2.70;;;;;;;25.98;40.53;98837.82;1689583;84;21519;-81
2022/06/25 08:50:59;;;;;;;3.25;2.27;;;;;;;26.11;40.55;98838.00;1662596;86;20999;-81
2022/06/25 08:53:32;;;;;;;4.70;2.35;;;;;;;26.26;40.24;98835.70;1727913;83;21007;-80
2022/06/25 08:56:02;;;;;;;7.65;2.30;;;;;;;26.38;40.14;98830.07;1728074;83;20992;-82
2022/06/25 08:58:30;;;;;;;6.05;2.30;;;;;;;26.53;39.82;98829.59;1728517;83;21046;-82
2022/06/25 09:00:57;;;;;;;5.45;2.22;;;;;;;26.63;39.64;98835.74;1724755;83;21495;-81
2022/06/25 09:03:25;;;;;;;6.55;2.70;;;;;;;26.71;39.20;98825.17;1726319;83;21047;-82
2022/06/25 09:05:52;;;;;;;6.25;2.45;;;;;;;26.85;38.67;98821.67;1725040;83;20951;-80
2022/06/25 09:08:19;;;;;;;6.70;2.30;;;;;;;26.86;38.57;98822.00;1728699;83;20989;-80
2022/06/25 09:10:51;;;;;;;6.28;2.10;;;;;;;26.92;37.61;98828.10;1683001;85;20983;-81
2022/06/25 09:13:22;;;;;;;3.98;2.12;;;;;;;26.96;37.87;98826.31;1722804;83;21038;-82
2022/06/25 09:15:49;;;;;;;5.00;2.50;;;;;;;27.08;37.65;98823.41;1689792;84;21019;-81
2022/06/25 09:18:19;;;;;;;5.95;2.42;;;;;;;27.14;37.27;98822.84;1720883;83;20947;-81
2022/06/25 09:21:07;;;;;;;4.40;2.22;;;;;;;27.26;37.65;98818.16;1720354;83;21003;-82
2022/06/25 09:23:55;;;;;;;6.80;2.10;;;;;;;27.42;37.74;98822.30;1727871;83;21006;-82
2022/06/25 09:26:21;;;;;;;3.90;1.95;;;;;;;27.55;37.25;98830.74;1675713;85;21067;-82
2022/06/25 09:28:48;;;;;;;4.80;2.20;;;;;;;27.66;36.43;98823.52;1720628;83;20974;-82
2022/06/25 09:31:34;;;;;;;4.55;2.15;;;;;;;27.72;37.04;98826.90;1721173;83;20975;-81
2022/06/25 09:34:07;;;;;;;3.85;2.10;;;;;;;27.84;36.86;98821.65;1719689;83;21003;-81
2022/06/25 09:36:34;;;;;;;4.42;2.35;;;;;;;27.95;36.05;98816.09;1724378;83;21018;-81
2022/06/25 09:39:01;;;;;;;4.87;2.08;;;;;;;27.99;35.85;98817.09;1712342;83;21554;-80
2022/06/25 09:41:49;;;;;;;2.83;1.72;;;;;;;27.98;35.67;98812.27;1721104;83;21011;-81
2022/06/25 09:44:18;;;;;;;3.37;2.10;;;;;;;28.06;34.84;98814.16;1725859;82;20990;-82
2022/06/25 09:46:56;;;;;;;3.00;1.82;;;;;;;28.10;35.11;98812.34;1736579;82;21020;-82
2022/06/25 09:49:26;;;;;;;4.95;2.02;;;;;;;28.21;35.05;98813.06;1739790;82;21521;-82
2022/06/25 09:52:01;;;;;;;2.83;1.77;;;;;;;28.27;34.69;98808.41;1738859;81;20975;-81
2022/06/25 09:54:29;;;;;;;5.47;2.20;;;;;;;28.27;34.64;98802.59;1735785;82;21002;-82
2022/06/25 09:56:56;;;;;;;2.65;1.77;;;;;;;28.32;34.75;98795.42;1734372;81;21050;-82
2022/06/25 09:59:30;;;;;;;3.37;1.92;;;;;;;28.40;32.78;98798.64;1728862;82;21807;-81
2022/06/25 10:01:59;;;;;;;3.05;1.82;;;;;;;28.40;32.72;98794.63;1699332;81;20994;-81
2022/06/25 10:04:28;;;;;;;8.75;1.90;;;;;;;28.40;33.21;98792.78;1734753;82;20987;-81
2022/06/25 10:06:56;;;;;;;8.75;2.20;;;;;;;28.47;33.04;98790.30;1738558;82;20991;-81
2022/06/25 10:09:25;;;;;;;2.75;1.85;;;;;;;28.54;32.60;98788.70;1732665;81;21041;-81
2022/06/25 10:11:53;;;;;;;3.70;1.98;;;;;;;28.59;33.13;98783.72;1735819;82;21026;-82
2022/06/25 10:14:20;;;;;;;6.67;2.10;;;;;;;28.62;32.86;98787.39;1735358;81;21069;-82
2022/06/25 10:16:48;;;;;;;2.22;1.65;;;;;;;28.74;33.00;98783.92;1740669;82;20990;-82
2022/06/25 10:19:16;;;;;;;5.58;2.72;;;;;;;28.74;30.76;98783.41;1734701;81;21549;-82
2022/06/25 10:21:43;;;;;;;3.75;1.75;;;;;;;28.74;29.29;98782.08;1740087;82;20997;-83
2022/06/25 10:24:10;;;;;;;10.18;1.92;;;;;;;28.86;31.01;98776.44;1727117;81;21007;-82
2022/06/25 10:26:37;;;;;;;6.28;2.00;;;;;;;28.92;30.46;98777.12;1735149;82;21022;-83
2022/06/25 10:29:28;;;;;;;4.85;1.80;;;;;;;28.94;30.77;98777.80;1733682;81;21014;-83
2022/06/25 10:32:16;;;;;;;5.85;1.82;;;;;;;29.05;31.34;98780.64;1726018;82;20963;-83
2022/06/25 10:34:57;;;;;;;3.70;1.77;;;;;;;29.25;31.54;98774.03;1735457;81;21469;-82
2022/06/25 10:37:24;;;;;;;4.37;1.85;;;;;;;29.47;31.53;98776.55;1741331;82;21002;-83
2022/06/25 10:39:55;;;;;;;2.70;1.50;;;;;;;29.62;29.18;98766.50;1735686;81;21022;-83
2022/06/25 10:45:24;;;;;;;2.70;1.60;;;;;;;29.83;30.83;98766.84;1718493;81;21026;-83
2022/06/25 10:47:54;;;;;;;2.62;1.70;;;;;;;30.02;30.56;98766.95;1734190;82;21554;-83
2022/06/25 10:50:26;;;;;;;3.98;1.77;;;;;;;30.20;30.52;98765.42;1733098;81;21006;-83
2022/06/25 10:53:10;;;;;;;3.40;1.82;;;;;;;30.40;29.82;98765.03;1740275;82;21490;-84
2022/06/25 10:55:54;;;;;;;3.25;1.80;;;;;;;30.55;29.58;98757.94;1728467;81;21098;-83
2022/06/25 10:58:25;;;;;;;2.47;1.50;;;;;;;30.65;26.49;98757.20;1738375;82;20978;-83
2022/06/25 11:01:01;;;;;;;5.30;1.70;;;;;;;30.74;27.11;98751.31;1731728;81;20990;-84
2022/06/25 11:03:35;;;;;;;2.92;1.60;;;;;;;30.78;26.73;98749.08;1740355;82;21014;-83
2022/06/25 11:06:29;;;;;;;3.02;1.62;;;;;;;30.85;26.18;98752.23;1731545;81;20976;-82
2022/06/25 11:09:12;;;;;;;4.65;1.60;;;;;;;30.92;26.39;98754.58;1740658;82;21007;-83
2022/06/25 11:11:40;;;;;;;2.83;1.55;;;;;;;30.97;26.03;98754.55;1742125;82;20990;-83
2022/06/25 11:14:21;;;;;;;3.50;1.62;;;;;;;30.93;26.27;98758.91;1733492;82;20972;-83
2022/06/25 11:16:49;;;;;;;3.17;2.08;;;;;;;30.93;25.67;98747.35;1742304;80;20973;-85
2022/06/25 11:19:17;;;;;;;3.42;1.90;;;;;;;30.97;25.92;98746.50;1744365;81;21013;-84
2022/06/25 11:21:45;;;;;;;3.60;2.00;;;;;;;31.03;25.72;98746.61;1736211;80;21006;-86
2022/06/25 11:24:26;;;;;;;2.98;1.77;;;;;;;31.09;26.38;98746.41;1736601;82;21561;-83
2022/06/25 11:29:51;;;;;;;2.95;1.70;;;;;;;31.46;26.81;98738.93;1701002;84;21019;-83
2022/06/25 11:32:24;;;;;;;2.20;1.52;;;;;;;31.53;26.15;98744.40;1730329;81;21067;-83
2022/06/25 11:34:57;;;;;;;5.40;1.77;;;;;;;31.66;25.99;98741.11;1727983;82;20979;-85
2022/06/25 11:37:25;;;;;;;2.92;1.42;;;;;;;31.78;25.04;98731.58;1735157;82;21007;-84
2022/06/25 11:39:51;;;;;;;3.77;1.70;;;;;;;31.82;25.68;98734.73;1739746;82;21020;-86
2022/06/25 11:42:19;;;;;;;2.62;1.55;;;;;;;31.89;24.73;98719.03;1752350;81;21014;-84
2022/06/25 11:44:52;;;;;;;4.25;1.67;;;;;;;31.95;24.50;98712.58;1715659;83;21033;-85
2022/06/25 11:47:25;;;;;;;3.55;1.50;;;;;;;32.11;24.91;98713.75;1729912;83;21009;-83
2022/06/25 11:49:53;;;;;;;3.15;1.45;;;;;;;32.36;24.93;98714.81;1709380;83;21000;-86
2022/06/25 11:52:24;;;;;;;4.12;1.70;;;;;;;32.59;24.65;98708.82;1731992;83;21010;-84
2022/06/25 11:54:52;;;;;;;4.22;1.57;;;;;;;32.70;24.02;98705.61;1717190;83;21027;-85
2022/06/25 11:57:25;;;;;;;3.47;1.70;;;;;;;32.62;23.57;98701.70;1717927;83;21028;-85
2022/06/25 11:59:54;;;;;;;3.35;1.70;;;;;;;32.74;23.68;98710.11;1731704;83;20987;-84